Hartford Brainard Airport Hartford US
ICAO: KHFD
IATA: HFD
Category: Medium
Scheduled Services: No

Elevation: 18 ft
TransAlt. 18000 ft.

Airport Communications:
BRADLEY APP/DEP:127.8
ATIS:126.45
BRADLEY CLNC DEL:121.6
CTAF:119.6
GND:121.6
BRAINARD TWR:119.6
UNICOM:122.95

KHFD Zoom In..

Runways:

(A) RW 02 length 4417 ft width 150 ft
---- / hdg 24

(B) RW 11 length 2314 ft width 71 ft
---- / hdg 114

(C) RW 20 length 4417 ft width 150 ft
---- / hdg 204

(D) RW 29 length 2314 ft width 71 ft
---- / hdg 294

Location; KHFD
Day. 20 / Time. 19.53 Zulu
* Altimeter: 30.11
* Temperature: 27° c. 80.6°f.
* Wind from: 160° Speed 08 kn.
Dewpoint: 15° c.
Visibility: 10 Statute Miles.
Clouds: Clear (automated report).

KHFD 201953Z 16008KT 10SM CLR 27/15 A3011 RMK AO2 SLP196 T02720150


Wind From 160°
Speed 08 kn.

 
 
jpsmedia.com for Web Design worldairports.se 2018   terms of use